Terminal Aerodrome Forecast
Issued by NWS Wilmington, NC

Home | Current Version | Previous Version | Text Only | Print | Product List | Glossary On
Versions: 1 2 3 4 5 6 7 8 9 10 11 12 13 14 15 16 17 18 19
000
FTUS42 KILM 301845 AAA
TAFLBT
TAF AMD
KLBT 301845Z 3019/3118 25011G18KT P6SM SCT040
     FM302200 28011KT P6SM SCT020 SCT050
     FM310000 VRB03KT P6SM SKC
     FM311400 18007KT P6SM SKC=

USA.gov is the U.S. government's official web portal to all federal, state and local government web resources and services.